createdAt,value
2022-07-25T00:00:13.005Z,21.50
2022-07-25T00:02:39.870Z,21.67
2022-07-25T00:05:06.708Z,21.84
2022-07-25T00:07:33.332Z,22.00
2022-07-25T00:10:00.102Z,22.13
2022-07-25T00:12:27.052Z,22.25
2022-07-25T00:14:53.602Z,22.37
2022-07-25T00:17:20.156Z,22.44
2022-07-25T00:19:46.713Z,22.51
2022-07-25T00:22:13.503Z,22.52
2022-07-25T00:24:40.113Z,22.45
2022-07-25T00:27:08.015Z,22.50
2022-07-25T00:29:34.542Z,22.49
2022-07-25T00:32:04.811Z,22.50
2022-07-25T00:34:31.272Z,22.52
2022-07-25T00:36:57.757Z,22.52
2022-07-25T00:39:24.301Z,22.54
2022-07-25T00:41:50.786Z,22.58
2022-07-25T00:44:31.369Z,22.57
2022-07-25T00:46:58.696Z,22.59
2022-07-25T00:49:26.349Z,22.64
2022-07-25T00:51:54.014Z,22.66
2022-07-25T00:54:21.242Z,22.64
2022-07-25T00:56:49.042Z,22.68
2022-07-25T00:59:17.015Z,22.69
2022-07-25T01:01:45.547Z,22.72
2022-07-25T01:04:12.149Z,22.74
2022-07-25T01:06:38.699Z,22.73
2022-07-25T01:09:05.338Z,22.79
2022-07-25T01:11:31.830Z,22.76
2022-07-25T01:13:58.285Z,22.76
2022-07-25T01:16:24.835Z,22.80
2022-07-25T01:18:51.352Z,22.75
2022-07-25T01:21:17.882Z,22.81
2022-07-25T01:23:44.343Z,22.80
2022-07-25T01:26:10.791Z,22.77
2022-07-25T01:28:37.357Z,22.77
2022-07-25T01:31:04.786Z,22.79
2022-07-25T01:33:31.362Z,22.78
2022-07-25T01:35:57.844Z,22.80
2022-07-25T01:38:24.422Z,22.80
2022-07-25T01:40:50.912Z,22.78
2022-07-25T01:43:17.438Z,22.77
2022-07-25T01:45:43.956Z,22.76
2022-07-25T01:48:10.429Z,22.76
2022-07-25T01:50:37.037Z,22.72
2022-07-25T01:53:04.257Z,22.69
2022-07-25T01:55:30.717Z,22.69
2022-07-25T01:58:01.392Z,22.65
2022-07-25T02:00:28.346Z,22.52
2022-07-25T02:03:14.867Z,22.32
2022-07-25T02:05:41.644Z,22.15
2022-07-25T02:08:08.197Z,22.07
2022-07-25T02:10:38.012Z,22.05
2022-07-25T02:13:04.642Z,22.03
2022-07-25T02:15:31.136Z,22.03
2022-07-25T02:17:57.595Z,22.07
2022-07-25T02:20:24.069Z,22.04
2022-07-25T02:22:50.505Z,22.01
2022-07-25T02:25:16.984Z,21.52
2022-07-25T02:27:43.604Z,21.10
2022-07-25T02:30:10.577Z,20.93
2022-07-25T02:32:37.180Z,20.60
2022-07-25T02:35:05.116Z,20.40
2022-07-25T02:37:39.590Z,20.25
2022-07-25T02:40:06.756Z,20.08
2022-07-25T02:42:33.263Z,19.94
2022-07-25T02:44:59.745Z,19.86
2022-07-25T02:47:26.315Z,19.88
2022-07-25T02:49:52.773Z,19.74
2022-07-25T02:52:19.206Z,19.71
2022-07-25T02:54:45.718Z,19.63
2022-07-25T02:57:12.223Z,19.51
2022-07-25T02:59:38.780Z,19.37
2022-07-25T03:02:08.598Z,19.31
2022-07-25T03:04:35.205Z,19.28
2022-07-25T03:07:01.768Z,19.21
2022-07-25T03:09:28.236Z,19.13
2022-07-25T03:11:54.740Z,19.13
2022-07-25T03:14:21.318Z,19.09
2022-07-25T03:16:47.851Z,19.12
2022-07-25T03:19:14.445Z,19.12
2022-07-25T03:21:40.945Z,19.16
2022-07-25T03:24:07.913Z,19.12
2022-07-25T03:26:34.737Z,19.09
2022-07-25T03:29:01.363Z,19.10
2022-07-25T03:31:28.670Z,19.07
2022-07-25T03:33:55.285Z,19.07
2022-07-25T03:36:21.726Z,19.05
2022-07-25T03:38:48.221Z,19.06
2022-07-25T03:41:14.660Z,19.11
2022-07-25T03:43:41.170Z,19.06
2022-07-25T03:46:07.640Z,19.02
2022-07-25T03:48:34.145Z,19.01
2022-07-25T03:51:06.462Z,19.00
2022-07-25T03:53:33.937Z,19.04
2022-07-25T03:56:03.295Z,19.03
2022-07-25T03:58:29.754Z,19.03
2022-07-25T04:00:56.347Z,19.06
2022-07-25T04:03:25.175Z,19.12
2022-07-25T04:05:51.607Z,19.12
2022-07-25T04:08:18.066Z,19.13
2022-07-25T04:10:44.787Z,19.11
2022-07-25T04:13:11.362Z,19.24
2022-07-25T04:15:37.813Z,19.43
2022-07-25T04:18:07.600Z,19.77
2022-07-25T04:20:37.544Z,20.25
2022-07-25T04:23:04.064Z,20.80
2022-07-25T04:25:31.033Z,21.36
2022-07-25T04:27:57.481Z,21.97
2022-07-25T04:30:39.725Z,22.66
2022-07-25T04:33:06.224Z,23.26
2022-07-25T04:35:32.666Z,23.63
2022-07-25T04:37:59.127Z,24.05
2022-07-25T04:40:25.571Z,24.47
2022-07-25T04:42:52.033Z,24.91
2022-07-25T04:45:18.527Z,25.27
2022-07-25T04:47:45.163Z,25.62
2022-07-25T04:50:11.761Z,25.96
2022-07-25T04:52:38.249Z,26.30
2022-07-25T04:55:05.572Z,26.60
2022-07-25T04:57:32.068Z,26.86
2022-07-25T04:59:58.812Z,27.12
2022-07-25T05:02:26.256Z,27.47
2022-07-25T05:04:52.816Z,27.53
2022-07-25T05:07:19.341Z,27.80
2022-07-25T05:09:45.968Z,27.99
2022-07-25T05:12:12.546Z,28.16
2022-07-25T05:14:39.217Z,28.42
2022-07-25T05:17:05.779Z,28.68
2022-07-25T05:19:32.219Z,28.88
2022-07-25T05:21:58.687Z,29.03
2022-07-25T05:24:25.184Z,29.44
2022-07-25T05:26:51.658Z,29.45
2022-07-25T05:29:18.363Z,29.71
2022-07-25T05:31:45.117Z,29.57
2022-07-25T05:34:11.767Z,29.74
2022-07-25T05:36:38.196Z,30.15
2022-07-25T05:39:04.795Z,30.22
2022-07-25T05:41:31.444Z,30.36
2022-07-25T05:43:57.887Z,30.41
2022-07-25T05:46:25.543Z,30.73
2022-07-25T05:48:52.262Z,30.60
2022-07-25T05:51:18.852Z,30.88
2022-07-25T05:53:45.344Z,31.02
2022-07-25T05:56:11.806Z,30.94
2022-07-25T05:58:40.484Z,31.19
2022-07-25T06:01:08.693Z,31.28
2022-07-25T06:03:35.206Z,31.87
2022-07-25T06:06:01.691Z,31.32
2022-07-25T06:08:30.772Z,31.54
2022-07-25T06:11:00.792Z,31.80
2022-07-25T06:13:28.406Z,31.84
2022-07-25T06:15:55.123Z,32.02
2022-07-25T06:18:23.159Z,32.20
2022-07-25T06:20:49.711Z,32.31
2022-07-25T06:23:16.853Z,32.57
2022-07-25T06:25:43.205Z,32.52
2022-07-25T06:28:18.360Z,32.80
2022-07-25T06:30:45.520Z,33.16
2022-07-25T06:33:12.092Z,33.41
2022-07-25T06:35:39.039Z,33.51
2022-07-25T06:38:05.603Z,33.99
2022-07-25T06:40:32.067Z,33.95
2022-07-25T06:42:58.598Z,34.26
2022-07-25T06:45:25.481Z,33.81
2022-07-25T06:47:52.045Z,33.63
2022-07-25T06:50:21.253Z,33.83
2022-07-25T06:52:48.150Z,34.09
2022-07-25T06:55:15.491Z,33.78
2022-07-25T06:57:43.415Z,33.89
2022-07-25T07:00:12.094Z,33.79
2022-07-25T07:02:53.402Z,34.15
2022-07-25T07:05:20.769Z,33.93
2022-07-25T07:07:48.112Z,34.04
2022-07-25T07:10:15.182Z,34.45
2022-07-25T07:12:41.831Z,34.65
2022-07-25T07:15:08.795Z,34.88
2022-07-25T07:17:35.316Z,35.35
2022-07-25T07:20:01.972Z,35.57
2022-07-25T07:22:29.384Z,35.39
2022-07-25T07:24:56.512Z,35.31
2022-07-25T07:27:24.311Z,35.83
2022-07-25T07:29:51.019Z,35.92
2022-07-25T07:32:17.695Z,36.14
2022-07-25T07:34:44.211Z,36.41
2022-07-25T07:37:11.107Z,36.38
2022-07-25T07:39:37.575Z,36.09
2022-07-25T07:42:04.879Z,36.46
2022-07-25T07:44:31.374Z,36.84
2022-07-25T07:47:01.646Z,36.77
2022-07-25T07:49:29.649Z,36.87
2022-07-25T07:51:56.480Z,37.21
2022-07-25T07:54:41.645Z,37.77
2022-07-25T07:57:08.378Z,37.87
2022-07-25T07:59:34.939Z,37.85
2022-07-25T08:02:01.801Z,37.98
2022-07-25T08:04:28.516Z,37.83
2022-07-25T08:06:54.983Z,38.04
2022-07-25T08:09:21.426Z,37.80
2022-07-25T08:11:47.920Z,38.30
2022-07-25T08:14:14.384Z,38.06
2022-07-25T08:16:40.945Z,38.01
2022-07-25T08:19:07.443Z,37.99
2022-07-25T08:21:33.901Z,38.09
2022-07-25T08:24:00.454Z,38.05
2022-07-25T08:26:27.923Z,37.40
2022-07-25T08:29:17.123Z,37.44
2022-07-25T08:31:41.106Z,37.87
2022-07-25T08:34:08.074Z,38.23
2022-07-25T08:36:34.945Z,38.36
2022-07-25T08:39:02.021Z,38.65
2022-07-25T08:41:28.767Z,38.73
2022-07-25T08:43:55.821Z,38.75
2022-07-25T08:46:22.543Z,38.55
2022-07-25T08:48:49.734Z,38.44
2022-07-25T08:51:16.408Z,38.15
2022-07-25T08:53:43.565Z,38.21
2022-07-25T08:56:20.609Z,38.45
2022-07-25T08:58:47.646Z,38.26
2022-07-25T09:01:14.582Z,38.30
2022-07-25T09:03:41.942Z,37.87
2022-07-25T09:06:22.633Z,37.82
2022-07-25T09:08:56.842Z,37.37
2022-07-25T09:11:37.684Z,37.51
2022-07-25T09:14:08.543Z,37.72
2022-07-25T09:16:41.080Z,37.51
2022-07-25T09:19:16.701Z,37.43
2022-07-25T09:21:46.029Z,37.48
2022-07-25T09:24:16.068Z,37.56
2022-07-25T09:26:48.184Z,37.63
2022-07-25T09:29:25.014Z,37.37
2022-07-25T09:31:52.775Z,37.34
2022-07-25T09:34:39.508Z,37.30
2022-07-25T09:37:12.468Z,37.62
2022-07-25T09:39:46.319Z,37.81
2022-07-25T09:42:36.314Z,37.96
2022-07-25T09:45:07.647Z,38.00
2022-07-25T09:47:37.384Z,38.02
2022-07-25T09:50:05.691Z,37.79
2022-07-25T09:52:33.624Z,37.74
2022-07-25T09:55:03.663Z,37.55
2022-07-25T09:57:33.336Z,37.39
2022-07-25T10:00:00.730Z,37.46
2022-07-25T10:02:34.341Z,37.40
2022-07-25T10:05:30.067Z,37.38
2022-07-25T10:07:57.504Z,37.11
2022-07-25T10:10:27.699Z,37.00
2022-07-25T10:13:10.246Z,37.03
2022-07-25T10:15:45.033Z,36.68
2022-07-25T10:18:12.985Z,36.67
2022-07-25T10:20:39.956Z,36.86
2022-07-25T10:23:18.277Z,36.78
2022-07-25T10:25:48.955Z,36.91
2022-07-25T10:28:20.238Z,37.06
2022-07-25T10:30:46.797Z,36.97
2022-07-25T10:33:18.490Z,36.75
2022-07-25T10:35:45.395Z,36.83
2022-07-25T10:38:12.135Z,36.82
2022-07-25T10:40:42.055Z,36.82
2022-07-25T10:43:18.007Z,36.85
2022-07-25T10:45:53.105Z,36.89
2022-07-25T10:48:27.925Z,36.91
2022-07-25T10:51:07.773Z,36.85
2022-07-25T10:53:38.405Z,36.67
2022-07-25T10:56:20.828Z,36.67
2022-07-25T10:59:01.648Z,36.57
2022-07-25T11:01:37.210Z,36.67
2022-07-25T11:04:06.091Z,36.71
2022-07-25T11:06:43.066Z,36.54
2022-07-25T11:09:27.990Z,36.60
2022-07-25T11:11:57.586Z,36.56
2022-07-25T11:14:28.930Z,36.53
2022-07-25T11:17:09.422Z,36.58
2022-07-25T11:19:35.936Z,36.41
2022-07-25T11:22:05.747Z,36.30
2022-07-25T11:24:41.176Z,36.34
2022-07-25T11:27:12.330Z,36.25
2022-07-25T11:29:39.851Z,36.30
2022-07-25T11:32:11.201Z,36.30
2022-07-25T11:34:42.814Z,36.39
2022-07-25T11:37:11.728Z,36.47
2022-07-25T11:39:42.324Z,36.54
2022-07-25T11:42:09.919Z,36.57
2022-07-25T11:44:47.465Z,36.69
2022-07-25T11:47:23.453Z,36.67
2022-07-25T11:49:51.185Z,36.64
2022-07-25T11:52:26.111Z,36.68
2022-07-25T11:54:52.585Z,36.77
2022-07-25T11:57:23.982Z,37.01
2022-07-25T11:59:50.649Z,36.97
2022-07-25T12:02:32.252Z,36.86
2022-07-25T12:05:00.939Z,36.83
2022-07-25T12:07:36.685Z,36.83
2022-07-25T12:10:06.387Z,36.75
2022-07-25T12:12:52.522Z,36.74
2022-07-25T12:15:28.509Z,36.72
2022-07-25T12:17:56.837Z,36.97
2022-07-25T12:20:26.853Z,36.89
2022-07-25T12:22:56.409Z,36.82
2022-07-25T12:25:27.551Z,36.91
2022-07-25T12:27:58.880Z,37.03
2022-07-25T12:30:27.522Z,37.01
2022-07-25T12:32:54.456Z,37.01
2022-07-25T12:35:21.167Z,37.00
2022-07-25T12:37:48.189Z,36.95
2022-07-25T12:40:16.825Z,36.90
2022-07-25T12:42:44.420Z,36.90
2022-07-25T12:45:13.955Z,37.06
2022-07-25T12:47:40.823Z,37.08
2022-07-25T12:50:07.602Z,37.25
2022-07-25T12:52:34.353Z,37.15
2022-07-25T12:55:00.971Z,37.33
2022-07-25T12:57:27.839Z,37.28
2022-07-25T12:59:58.100Z,37.20
2022-07-25T13:02:24.765Z,37.20
2022-07-25T13:04:51.299Z,37.17
2022-07-25T13:07:17.966Z,37.31
2022-07-25T13:09:50.526Z,37.35
2022-07-25T13:12:17.136Z,37.41
2022-07-25T13:14:43.750Z,37.45
2022-07-25T13:17:11.259Z,37.72
2022-07-25T13:19:39.012Z,37.79
2022-07-25T13:22:06.022Z,37.85
2022-07-25T13:24:34.519Z,37.84
2022-07-25T13:27:05.054Z,37.83
2022-07-25T13:29:31.774Z,37.91
2022-07-25T13:31:58.550Z,37.80
2022-07-25T13:34:25.071Z,37.72
2022-07-25T13:36:53.966Z,37.70
2022-07-25T13:39:22.392Z,37.67
2022-07-25T13:41:49.486Z,37.65
2022-07-25T13:44:16.247Z,37.64
2022-07-25T13:46:46.080Z,37.70
2022-07-25T13:49:13.162Z,37.70
2022-07-25T13:51:39.988Z,37.69
2022-07-25T13:54:08.774Z,37.72
2022-07-25T13:56:35.342Z,37.69
2022-07-25T13:59:04.070Z,37.85
2022-07-25T14:01:30.992Z,37.74
2022-07-25T14:03:57.705Z,37.60
2022-07-25T14:06:24.311Z,37.51
2022-07-25T14:08:50.899Z,37.38
2022-07-25T14:11:17.589Z,37.37
2022-07-25T14:13:45.278Z,37.26
2022-07-25T14:16:16.227Z,37.07
2022-07-25T14:18:42.794Z,37.09
2022-07-25T14:21:09.344Z,37.07
2022-07-25T14:23:38.017Z,37.07
2022-07-25T14:26:04.735Z,36.90
2022-07-25T14:28:31.289Z,36.76
2022-07-25T14:30:57.847Z,36.62
2022-07-25T14:33:24.426Z,36.53
2022-07-25T14:35:50.954Z,36.56
2022-07-25T14:38:17.510Z,36.50
2022-07-25T14:40:44.228Z,36.33
2022-07-25T14:43:12.788Z,36.30
2022-07-25T14:45:41.288Z,36.11
2022-07-25T14:48:07.809Z,35.96
2022-07-25T14:50:34.412Z,35.87
2022-07-25T14:53:00.952Z,35.76
2022-07-25T14:55:27.621Z,35.69
2022-07-25T14:57:54.163Z,35.72
2022-07-25T15:00:22.781Z,35.57
2022-07-25T15:02:51.561Z,35.51
2022-07-25T15:05:18.134Z,35.43
2022-07-25T15:07:44.711Z,35.33
2022-07-25T15:10:11.307Z,35.31
2022-07-25T15:12:37.841Z,35.33
2022-07-25T15:15:05.020Z,35.29
2022-07-25T15:17:32.292Z,35.19
2022-07-25T15:19:58.852Z,35.11
2022-07-25T15:22:25.269Z,34.97
2022-07-25T15:25:27.190Z,34.95
2022-07-25T15:27:38.434Z,34.97
2022-07-25T15:30:06.463Z,34.92
2022-07-25T15:32:33.440Z,34.85
2022-07-25T15:34:59.911Z,34.87
2022-07-25T15:37:28.089Z,35.01
2022-07-25T15:39:54.646Z,35.22
2022-07-25T15:42:24.465Z,35.35
2022-07-25T15:45:15.201Z,35.47
2022-07-25T15:47:40.532Z,35.61
2022-07-25T15:50:07.561Z,35.61
2022-07-25T15:52:34.338Z,35.56
2022-07-25T15:55:00.847Z,35.41
2022-07-25T15:57:27.335Z,35.28
2022-07-25T15:59:53.905Z,35.11
2022-07-25T16:02:20.399Z,34.90
2022-07-25T16:04:46.909Z,34.83
2022-07-25T16:07:13.400Z,34.68
2022-07-25T16:09:40.024Z,34.53
2022-07-25T16:12:06.927Z,34.41
2022-07-25T16:14:33.722Z,34.27
2022-07-25T16:17:00.578Z,34.18
2022-07-25T16:19:27.151Z,34.00
2022-07-25T16:21:53.678Z,33.88
2022-07-25T16:24:20.181Z,33.75
2022-07-25T16:26:48.112Z,33.62
2022-07-25T16:29:16.662Z,33.53
2022-07-25T16:31:43.595Z,33.44
2022-07-25T16:34:10.180Z,33.32
2022-07-25T16:36:36.749Z,33.22
2022-07-25T16:39:04.003Z,33.13
2022-07-25T16:41:30.633Z,33.00
2022-07-25T16:43:57.968Z,32.92
2022-07-25T16:46:28.249Z,33.01
2022-07-25T16:48:55.246Z,33.08
2022-07-25T16:51:21.948Z,33.15
2022-07-25T16:53:48.544Z,33.23
2022-07-25T16:56:16.489Z,33.36
2022-07-25T16:58:43.289Z,33.36
2022-07-25T17:01:09.901Z,33.37
2022-07-25T17:03:36.501Z,33.34
2022-07-25T17:06:03.388Z,33.35
2022-07-25T17:08:31.952Z,33.36
2022-07-25T17:10:58.819Z,33.31
2022-07-25T17:13:26.013Z,33.34
2022-07-25T17:15:53.015Z,33.33
2022-07-25T17:18:19.734Z,33.39
2022-07-25T17:20:46.416Z,33.48
2022-07-25T17:23:13.119Z,33.41
2022-07-25T17:25:50.064Z,33.39
2022-07-25T17:28:17.259Z,33.45
2022-07-25T17:30:44.075Z,33.30
2022-07-25T17:33:10.648Z,33.18
2022-07-25T17:35:37.335Z,33.08
2022-07-25T17:38:03.958Z,32.93
2022-07-25T17:40:31.001Z,32.84
2022-07-25T17:42:57.858Z,32.74
2022-07-25T17:45:26.012Z,32.67
2022-07-25T17:47:52.747Z,32.55
2022-07-25T17:50:27.182Z,32.52
2022-07-25T17:53:00.238Z,32.39
2022-07-25T17:55:30.134Z,32.35
2022-07-25T17:57:59.792Z,32.30
2022-07-25T18:00:27.425Z,32.27
2022-07-25T18:02:53.963Z,32.21
2022-07-25T18:05:20.556Z,32.11
2022-07-25T18:07:49.546Z,32.06
2022-07-25T18:10:17.627Z,31.97
2022-07-25T18:12:44.549Z,31.89
2022-07-25T18:15:12.374Z,31.73
2022-07-25T18:17:41.197Z,31.58
2022-07-25T18:20:08.450Z,31.52
2022-07-25T18:22:35.035Z,31.48
2022-07-25T18:25:01.698Z,31.42
2022-07-25T18:27:28.213Z,31.30
2022-07-25T18:29:54.715Z,31.17
2022-07-25T18:32:21.250Z,31.05
2022-07-25T18:34:47.748Z,30.91
2022-07-25T18:37:14.247Z,30.87
2022-07-25T18:39:40.965Z,30.73
2022-07-25T18:42:07.736Z,30.65
2022-07-25T18:44:34.410Z,30.57
2022-07-25T18:47:01.000Z,30.47
2022-07-25T18:49:28.500Z,30.40
2022-07-25T18:51:55.240Z,30.33
2022-07-25T18:54:22.219Z,30.27
2022-07-25T18:56:48.983Z,30.10
2022-07-25T18:59:15.969Z,30.07
2022-07-25T19:01:42.688Z,30.04
2022-07-25T19:04:11.757Z,29.97
2022-07-25T19:06:38.455Z,29.89
2022-07-25T19:09:05.042Z,29.85
2022-07-25T19:11:33.350Z,29.77
2022-07-25T19:13:59.863Z,29.66
2022-07-25T19:16:26.646Z,29.53
2022-07-25T19:18:53.423Z,29.47
2022-07-25T19:21:20.121Z,29.42
2022-07-25T19:23:50.836Z,29.28
2022-07-25T19:26:21.420Z,29.28
2022-07-25T19:28:50.102Z,29.20
2022-07-25T19:31:17.442Z,29.08
2022-07-25T19:33:46.064Z,28.93
2022-07-25T19:36:13.813Z,28.84
2022-07-25T19:38:40.525Z,28.85
2022-07-25T19:41:08.296Z,28.73
2022-07-25T19:43:37.816Z,28.63
2022-07-25T19:46:04.525Z,28.45
2022-07-25T19:48:31.250Z,28.38
2022-07-25T19:50:57.815Z,28.31
2022-07-25T19:53:28.644Z,28.16
2022-07-25T19:55:55.495Z,28.03
2022-07-25T19:58:25.213Z,27.86
2022-07-25T20:00:51.856Z,27.84
2022-07-25T20:03:23.223Z,27.72
2022-07-25T20:05:50.381Z,27.57
2022-07-25T20:08:18.129Z,27.45
2022-07-25T20:10:44.971Z,27.40
2022-07-25T20:13:12.212Z,27.28
2022-07-25T20:15:38.817Z,27.20
2022-07-25T20:18:19.662Z,27.12
2022-07-25T20:20:55.049Z,27.01
2022-07-25T20:23:23.503Z,26.95
2022-07-25T20:25:50.772Z,26.98
2022-07-25T20:28:20.181Z,26.91
2022-07-25T20:30:50.880Z,26.87
2022-07-25T20:33:18.246Z,26.86
2022-07-25T20:35:47.606Z,26.84
2022-07-25T20:38:14.771Z,26.95
2022-07-25T20:41:16.073Z,26.89
2022-07-25T20:43:56.047Z,26.86
2022-07-25T20:51:08.513Z,26.83
2022-07-25T20:53:35.301Z,26.82
2022-07-25T20:56:02.701Z,26.83
2022-07-25T20:58:29.607Z,26.89
2022-07-25T21:00:56.227Z,26.89
2022-07-25T21:03:22.918Z,26.87
2022-07-25T21:05:50.023Z,26.92
2022-07-25T21:08:16.952Z,26.89
2022-07-25T21:10:43.837Z,26.86
2022-07-25T21:13:10.526Z,26.80
2022-07-25T21:15:37.283Z,26.74
2022-07-25T21:18:04.090Z,26.67
2022-07-25T21:20:33.293Z,26.63
2022-07-25T21:23:05.093Z,26.63
2022-07-25T21:25:37.743Z,26.51
2022-07-25T21:28:10.064Z,26.42
2022-07-25T21:30:37.804Z,26.37
2022-07-25T21:33:15.014Z,26.34
2022-07-25T21:35:49.227Z,26.30
2022-07-25T21:38:27.662Z,26.16
2022-07-25T21:40:56.601Z,26.08
2022-07-25T21:43:26.473Z,25.96
2022-07-25T21:45:56.070Z,25.88
2022-07-25T21:48:46.213Z,25.85
2022-07-25T21:51:18.783Z,25.80
2022-07-25T21:53:50.229Z,25.72
2022-07-25T21:56:16.820Z,25.59
2022-07-25T21:58:43.616Z,25.47
2022-07-25T22:01:10.447Z,25.46
2022-07-25T22:03:37.214Z,25.39
2022-07-25T22:06:19.220Z,25.26
2022-07-25T22:08:53.878Z,25.18
2022-07-25T22:11:38.684Z,25.09
2022-07-25T22:14:07.469Z,24.98
2022-07-25T22:16:34.126Z,24.94
2022-07-25T22:19:00.991Z,24.88
2022-07-25T22:21:27.625Z,24.80
2022-07-25T22:23:54.369Z,24.74
2022-07-25T22:26:21.384Z,24.69
2022-07-25T22:28:48.629Z,24.60
2022-07-25T22:31:15.657Z,24.52
2022-07-25T22:33:45.024Z,24.47
2022-07-25T22:36:11.782Z,24.43
2022-07-25T22:38:38.428Z,24.46
2022-07-25T22:41:05.066Z,24.41
2022-07-25T22:43:53.162Z,24.36
2022-07-25T22:46:19.000Z,24.30
2022-07-25T22:48:45.546Z,24.21
2022-07-25T22:51:12.117Z,24.24
2022-07-25T22:53:38.833Z,24.18
2022-07-25T22:56:05.922Z,24.13
2022-07-25T22:58:32.393Z,24.07
2022-07-25T23:00:59.009Z,24.01
2022-07-25T23:07:15.670Z,23.98
2022-07-25T23:09:42.343Z,23.90
2022-07-25T23:12:08.880Z,23.91
2022-07-25T23:14:35.408Z,23.89
2022-07-25T23:17:17.088Z,23.85
2022-07-25T23:19:44.384Z,23.83
2022-07-25T23:22:10.911Z,23.81
2022-07-25T23:24:38.160Z,23.75
2022-07-25T23:27:05.183Z,23.66
2022-07-25T23:29:31.810Z,23.64
2022-07-25T23:31:58.427Z,23.56
2022-07-25T23:34:24.931Z,23.53
2022-07-25T23:36:51.426Z,23.53
2022-07-25T23:39:17.855Z,23.56
2022-07-25T23:41:44.318Z,23.54
2022-07-25T23:44:11.166Z,23.53
2022-07-25T23:46:38.599Z,23.48
2022-07-25T23:49:06.526Z,23.49
2022-07-25T23:51:33.166Z,23.50
2022-07-25T23:53:59.662Z,23.42
2022-07-25T23:56:26.178Z,23.40
2022-07-25T23:58:52.693Z,23.43
